Time;durP1;ratioP1;P1;durP2;ratioP2;P2;SDS_P1;SDS_P2;PMS_P1;PMS_P2;Temp;Humidity;BMP_temperature;BMP_pressure;BME280_temperature;BME280_humidity;BME280_pressure;Samples;Min_cycle;Max_cycle;Signal;HPM_P1;HPM_P2
2023/01/15 00:01:26;;;;;;;14.82;2.13;;;;;;;-143.48;74.43;118439.88;4998123;28;20026;-68
2023/01/15 00:03:54;;;;;;;11.20;2.05;;;;;;;-143.48;73.83;118439.88;4998022;28;20026;-68
2023/01/15 00:06:21;;;;;;;15.18;2.10;;;;;;;-143.48;75.67;118439.88;5015207;28;20103;-68
2023/01/15 00:08:47;;;;;;;19.25;2.35;;;;;;;-143.48;73.22;118439.88;5015291;28;20030;-68
2023/01/15 00:11:12;;;;;;;13.60;2.17;;;;;;;-143.48;74.17;118439.88;5015235;28;20022;-68
2023/01/15 00:13:38;;;;;;;12.85;2.63;;;;;;;-143.48;73.42;118439.88;4997629;28;20109;-68
2023/01/15 00:16:13;;;;;;;17.65;2.10;;;;;;;-143.48;73.43;118439.88;4997596;28;20404;-69
2023/01/15 00:18:38;;;;;;;12.80;1.88;;;;;;;-143.48;72.66;118439.88;4998390;28;20026;-68
2023/01/15 00:21:06;;;;;;;19.52;2.97;;;;;;;-143.48;76.21;118439.88;4998154;28;20021;-68
2023/01/15 00:29:04;;;;;;;10.48;1.90;;;;;;;-143.48;73.35;118439.88;5017648;28;20043;-68
2023/01/15 00:31:31;;;;;;;11.30;1.60;;;;;;;-143.48;73.25;118439.88;5015940;28;20072;-68
2023/01/15 00:33:57;;;;;;;22.33;2.20;;;;;;;-143.48;73.40;118439.88;5015677;28;20033;-68
2023/01/15 00:36:22;;;;;;;13.93;2.70;;;;;;;-143.48;72.60;118439.88;5015640;28;20174;-68
2023/01/15 00:38:47;;;;;;;12.85;2.33;;;;;;;-143.48;73.33;118439.88;5015782;28;20453;-68
2023/01/15 00:41:13;;;;;;;15.43;2.35;;;;;;;-143.48;74.09;118439.88;5015652;28;20117;-68
2023/01/15 00:43:38;;;;;;;5.97;1.92;;;;;;;-143.48;74.35;118439.88;5015538;28;20022;-68
2023/01/15 00:46:04;;;;;;;12.13;1.98;;;;;;;-143.48;74.71;118439.88;5014824;28;20022;-68
2023/01/15 00:48:30;;;;;;;13.40;1.88;;;;;;;-143.48;74.48;118439.88;5018811;28;20038;-67
2023/01/15 00:50:55;;;;;;;9.18;1.83;;;;;;;-143.48;72.72;118439.88;5016753;28;20018;-67
2023/01/15 00:53:21;;;;;;;10.75;2.10;;;;;;;-143.48;72.98;118439.88;4997946;28;20396;-67
2023/01/15 00:55:46;;;;;;;14.80;2.03;;;;;;;-143.48;71.10;118439.88;4997671;28;20034;-68
2023/01/15 00:58:11;;;;;;;10.73;2.00;;;;;;;-143.48;72.40;118439.88;5015297;28;20026;-67
2023/01/15 01:00:36;;;;;;;18.02;2.00;;;;;;;-143.48;72.11;118439.88;5015075;28;20461;-68
2023/01/15 01:03:02;;;;;;;10.02;2.20;;;;;;;-143.48;72.38;118439.88;4997643;28;20029;-67
2023/01/15 01:05:27;;;;;;;14.20;2.50;;;;;;;-143.48;71.55;118439.88;5015048;28;20362;-67
2023/01/15 01:07:53;;;;;;;16.80;2.20;;;;;;;-143.48;73.42;118439.88;5015174;28;20052;-68
2023/01/15 01:10:18;;;;;;;12.05;2.53;;;;;;;-143.48;72.30;118439.88;5015135;28;20093;-67
2023/01/15 01:12:44;;;;;;;11.73;1.95;;;;;;;-143.48;72.41;118439.88;5015044;28;20029;-67
2023/01/15 01:15:09;;;;;;;16.75;2.30;;;;;;;-143.48;72.32;118439.88;5014874;28;20025;-67
2023/01/15 01:17:38;;;;;;;15.50;2.03;;;;;;;-143.48;73.54;118439.88;5014671;28;20026;-68
2023/01/15 01:20:04;;;;;;;14.05;1.98;;;;;;;-143.48;73.04;118439.88;5014930;28;20028;-68
2023/01/15 01:22:32;;;;;;;13.88;2.13;;;;;;;-143.48;71.91;118439.88;5015057;28;20034;-68
2023/01/15 01:24:57;;;;;;;11.23;1.85;;;;;;;-143.48;70.84;118439.88;5015048;28;20057;-68
2023/01/15 01:27:23;;;;;;;9.27;1.88;;;;;;;-143.48;70.20;118439.88;5014519;28;20405;-68
2023/01/15 01:29:48;;;;;;;11.80;1.88;;;;;;;-143.48;70.39;118439.88;5014708;28;20032;-67
2023/01/15 01:32:14;;;;;;;12.77;1.92;;;;;;;-143.48;72.14;118439.88;5014956;28;20108;-68
2023/01/15 01:34:39;;;;;;;11.23;2.13;;;;;;;-143.48;69.93;118439.88;5014634;28;20485;-67
2023/01/15 01:37:04;;;;;;;13.18;2.08;;;;;;;-143.48;70.16;118439.88;4997370;28;20025;-67
2023/01/15 01:39:29;;;;;;;13.77;1.55;;;;;;;-143.48;68.56;118439.88;5014450;28;20036;-67
2023/01/15 01:41:55;;;;;;;8.88;2.00;;;;;;;-143.48;68.95;118439.88;5014756;28;20033;-67
2023/01/15 01:44:32;;;;;;;12.52;2.00;;;;;;;-143.48;70.78;118439.88;5015327;28;20044;-67
2023/01/15 01:47:00;;;;;;;14.93;2.17;;;;;;;-143.48;68.24;118439.88;5015294;28;20026;-68
2023/01/15 01:49:25;;;;;;;13.20;2.28;;;;;;;-143.48;70.22;118439.88;5015395;28;20018;-69
2023/01/15 01:51:58;;;;;;;13.35;1.98;;;;;;;-143.48;68.48;118439.88;5015521;28;20122;-68
2023/01/15 01:54:25;;;;;;;10.32;1.30;;;;;;;-143.48;67.02;118439.88;5015557;28;20065;-68
2023/01/15 01:56:52;;;;;;;11.77;1.90;;;;;;;-143.48;69.16;118439.88;5014862;28;20053;-68
2023/01/15 01:59:19;;;;;;;9.27;1.83;;;;;;;-143.48;67.55;118439.88;5015939;28;20033;-68
2023/01/15 02:01:47;;;;;;;14.48;2.33;;;;;;;-143.48;68.64;118439.88;5016294;28;20033;-68
2023/01/15 02:04:12;;;;;;;14.63;1.90;;;;;;;-143.48;68.04;118439.88;5017617;28;20022;-69
2023/01/15 02:06:40;;;;;;;10.30;1.70;;;;;;;-143.48;68.68;118439.88;5022709;28;20113;-68
2023/01/15 02:09:05;;;;;;;10.93;1.90;;;;;;;-143.48;69.62;118439.88;5022030;28;20029;-68
2023/01/15 02:11:31;;;;;;;11.95;1.90;;;;;;;-143.48;69.40;118439.88;5021787;28;20026;-68
2023/01/15 02:14:21;;;;;;;14.02;1.70;;;;;;;-143.48;68.94;118439.88;5022914;28;20026;-68
2023/01/15 02:17:08;;;;;;;7.45;1.63;;;;;;;-143.48;70.84;118439.88;5022512;28;20034;-68
2023/01/15 02:20:16;;;;;;;11.18;1.65;;;;;;;-143.48;71.32;118439.88;5021104;28;20033;-68
2023/01/15 02:22:57;;;;;;;12.63;1.80;;;;;;;-143.48;69.39;118439.88;4974241;28;20128;-70
2023/01/15 02:25:32;;;;;;;10.20;2.42;;;;;;;-143.48;69.86;118439.88;5002900;28;20472;-69
2023/01/15 02:28:06;;;;;;;13.38;2.22;;;;;;;-143.48;70.20;118439.88;5029189;28;20030;-68
2023/01/15 02:30:43;;;;;;;13.35;1.75;;;;;;;-143.48;70.12;118439.88;5030005;28;20049;-68
2023/01/15 02:33:18;;;;;;;9.35;1.75;;;;;;;-143.48;69.38;118439.88;5030331;28;20021;-70
2023/01/15 02:35:53;;;;;;;11.90;1.88;;;;;;;-143.48;70.50;118439.88;5030311;28;20026;-70
2023/01/15 02:38:22;;;;;;;15.80;2.45;;;;;;;-143.48;69.16;118439.88;5030171;28;20022;-69
2023/01/15 02:40:52;;;;;;;15.75;2.17;;;;;;;-143.48;68.89;118439.88;5030192;28;20037;-69
2023/01/15 02:43:19;;;;;;;18.27;1.98;;;;;;;-143.48;70.75;118439.88;5021406;28;20029;-69
2023/01/15 02:45:48;;;;;;;10.25;1.70;;;;;;;-143.48;69.76;118439.88;5016384;28;20060;-68
2023/01/15 02:48:18;;;;;;;15.95;2.00;;;;;;;-143.48;69.46;118439.88;5015966;28;20022;-69
2023/01/15 02:50:46;;;;;;;17.77;2.17;;;;;;;-143.48;70.39;118439.88;5015719;28;20097;-69
2023/01/15 02:53:19;;;;;;;9.40;1.80;;;;;;;-143.48;72.50;118439.88;4997789;28;20030;-68
2023/01/15 02:55:49;;;;;;;17.52;2.28;;;;;;;-143.48;71.53;118439.88;5015351;28;20022;-69
2023/01/15 02:58:19;;;;;;;16.80;2.30;;;;;;;-143.48;71.18;118439.88;4997464;28;20022;-70
2023/01/15 03:00:48;;;;;;;11.20;1.85;;;;;;;-143.48;69.63;118439.88;5014163;28;20041;-68
2023/01/15 03:03:20;;;;;;;8.77;1.90;;;;;;;-143.48;69.52;118439.88;5014028;28;20049;-67
2023/01/15 03:06:03;;;;;;;14.63;2.15;;;;;;;-143.48;70.05;118439.88;5014215;28;20061;-68
2023/01/15 03:08:28;;;;;;;12.13;1.92;;;;;;;-143.48;70.20;118439.88;5015598;28;20403;-68
2023/01/15 03:11:16;;;;;;;16.65;2.35;;;;;;;-143.48;70.07;118439.88;4999940;28;20022;-68
2023/01/15 03:13:41;;;;;;;8.52;1.52;;;;;;;-143.48;69.80;118439.88;5017387;28;20029;-67
2023/01/15 03:16:38;;;;;;;11.98;2.13;;;;;;;-143.48;69.35;118439.88;4999887;28;20113;-68
2023/01/15 03:19:11;;;;;;;9.43;1.60;;;;;;;-143.48;67.66;118439.88;5017060;28;20025;-67
2023/01/15 03:21:42;;;;;;;12.98;2.00;;;;;;;-143.48;68.61;118439.88;4999582;28;20029;-67
2023/01/15 03:24:10;;;;;;;7.15;1.50;;;;;;;-143.48;69.25;118439.88;5017178;28;20022;-67
2023/01/15 03:26:35;;;;;;;12.82;1.90;;;;;;;-143.48;69.27;118439.88;5017184;28;20046;-67
2023/01/15 03:29:02;;;;;;;13.30;2.00;;;;;;;-143.48;69.57;118439.88;5016948;28;20392;-67
2023/01/15 03:31:28;;;;;;;11.88;1.83;;;;;;;-143.48;69.00;118439.88;4999520;28;20022;-67
2023/01/15 03:33:54;;;;;;;10.60;1.98;;;;;;;-143.48;69.09;118439.88;5016886;28;20025;-67
2023/01/15 03:36:19;;;;;;;11.73;2.13;;;;;;;-143.48;69.41;118439.88;5016921;28;20032;-68
2023/01/15 03:38:46;;;;;;;11.68;1.90;;;;;;;-143.48;69.55;118439.88;4999538;28;20022;-68
2023/01/15 03:41:36;;;;;;;14.73;1.92;;;;;;;-143.48;69.14;118439.88;4999126;28;20022;-68
2023/01/15 03:44:16;;;;;;;18.95;2.85;;;;;;;-143.48;69.54;118439.88;5016684;28;20030;-67
2023/01/15 03:47:04;;;;;;;15.80;2.17;;;;;;;-143.48;70.28;118439.88;5016857;28;20048;-68
2023/01/15 03:49:37;;;;;;;9.45;1.58;;;;;;;-143.48;70.39;118439.88;5016807;28;20040;-68
2023/01/15 03:52:06;;;;;;;11.65;1.58;;;;;;;-143.48;69.82;118439.88;4998421;28;20548;-68
2023/01/15 03:55:02;;;;;;;19.00;2.08;;;;;;;-143.48;70.20;118439.88;5016346;28;20026;-68
2023/01/15 03:57:38;;;;;;;18.23;1.85;;;;;;;-143.48;69.54;118439.88;5016162;28;20033;-67
2023/01/15 04:00:13;;;;;;;17.63;1.88;;;;;;;-143.48;68.36;118439.88;5016294;28;20026;-69
2023/01/15 04:02:39;;;;;;;11.73;2.17;;;;;;;-143.48;68.00;118439.88;5016407;28;20022;-69
2023/01/15 04:05:05;;;;;;;20.15;3.92;;;;;;;-143.48;68.60;118439.88;5016445;28;20076;-69
2023/01/15 04:07:31;;;;;;;17.00;2.25;;;;;;;-143.48;68.15;118439.88;5016346;28;20022;-69
2023/01/15 04:09:56;;;;;;;8.60;1.85;;;;;;;-143.48;70.26;118439.88;5016327;28;20025;-68
2023/01/15 04:12:22;;;;;;;13.35;2.05;;;;;;;-143.48;69.63;118439.88;5016114;28;20022;-68
2023/01/15 04:14:47;;;;;;;10.77;1.88;;;;;;;-143.48;70.46;118439.88;5016163;28;20491;-68
2023/01/15 04:17:12;;;;;;;15.32;1.92;;;;;;;-143.48;69.78;118439.88;5016085;28;20033;-69
2023/01/15 04:19:38;;;;;;;13.20;1.80;;;;;;;-143.48;68.66;118439.88;5015130;28;20089;-68
2023/01/15 04:22:03;;;;;;;13.82;1.77;;;;;;;-143.48;69.57;118439.88;5016140;28;20079;-69
2023/01/15 04:24:28;;;;;;;8.35;1.52;;;;;;;-143.48;69.45;118439.88;5015939;28;20037;-70
2023/01/15 04:26:54;;;;;;;9.82;1.80;;;;;;;-143.48;68.27;118439.88;4998190;28;20123;-69
2023/01/15 04:29:19;;;;;;;12.50;2.03;;;;;;;-143.48;67.21;118439.88;5015858;28;20037;-68
2023/01/15 04:31:44;;;;;;;15.77;1.73;;;;;;;-143.48;66.83;118439.88;5015813;28;20045;-69
2023/01/15 04:34:10;;;;;;;13.70;2.67;;;;;;;-143.48;68.19;118439.88;4998265;28;20025;-69
2023/01/15 04:36:35;;;;;;;14.75;1.60;;;;;;;-143.48;67.80;118439.88;4998195;28;20113;-69
2023/01/15 04:39:04;;;;;;;10.23;1.95;;;;;;;-143.48;67.00;118439.88;5015737;28;20477;-68
2023/01/15 04:44:13;;;;;;;8.35;1.70;;;;;;;-143.48;67.56;118439.88;5015647;28;20061;-68
2023/01/15 04:46:45;;;;;;;12.20;2.00;;;;;;;-143.48;67.14;118439.88;5015526;28;20030;-69
2023/01/15 04:49:15;;;;;;;8.07;1.60;;;;;;;-143.48;67.63;118439.88;4997914;28;20057;-69
2023/01/15 04:51:42;;;;;;;10.15;1.58;;;;;;;-143.48;66.67;118439.88;5015428;28;20105;-69
2023/01/15 04:54:08;;;;;;;11.35;1.90;;;;;;;-143.48;65.96;118439.88;5015475;28;20084;-69
2023/01/15 04:56:39;;;;;;;7.28;1.40;;;;;;;-143.48;66.81;118439.88;4997738;28;20022;-68
2023/01/15 04:59:05;;;;;;;8.23;1.75;;;;;;;-143.48;66.99;118439.88;5015104;28;20033;-68
2023/01/15 05:01:30;;;;;;;12.90;1.65;;;;;;;-143.48;67.38;118439.88;5015281;28;20029;-67
2023/01/15 05:03:57;;;;;;;9.80;1.67;;;;;;;-143.48;67.82;118439.88;5015324;28;20033;-68
2023/01/15 05:06:22;;;;;;;12.48;1.77;;;;;;;-143.48;68.67;118439.88;4997509;28;20025;-68
2023/01/15 05:08:48;;;;;;;11.77;1.35;;;;;;;-143.48;68.58;118439.88;5015341;28;20036;-69
2023/01/15 05:11:13;;;;;;;13.05;1.65;;;;;;;-143.48;69.11;118439.88;4997492;28;20022;-69
2023/01/15 05:13:38;;;;;;;14.02;1.63;;;;;;;-143.48;69.54;118439.88;5015052;28;20029;-69
2023/01/15 05:16:25;;;;;;;11.50;1.77;;;;;;;-143.48;70.74;118439.88;4997405;28;20026;-69
2023/01/15 05:18:53;;;;;;;7.45;1.80;;;;;;;-143.48;70.13;118439.88;4997254;28;20433;-69
2023/01/15 05:21:38;;;;;;;11.70;2.10;;;;;;;-143.48;69.75;118439.88;5014702;28;20022;-68
2023/01/15 05:24:05;;;;;;;9.90;1.67;;;;;;;-143.48;69.28;118439.88;5014343;28;20034;-69
2023/01/15 05:26:32;;;;;;;16.05;1.67;;;;;;;-143.48;69.81;118439.88;4997050;28;20056;-68
2023/01/15 05:28:58;;;;;;;9.43;1.60;;;;;;;-143.48;69.04;118439.88;5014606;28;20026;-68
2023/01/15 05:31:24;;;;;;;12.32;1.58;;;;;;;-143.48;68.85;118439.88;5014656;28;20026;-68
2023/01/15 05:33:51;;;;;;;12.68;2.10;;;;;;;-143.48;68.83;118439.88;5014767;28;20056;-70
2023/01/15 05:36:19;;;;;;;14.55;2.25;;;;;;;-143.48;70.45;118439.88;4997084;28;20084;-69
2023/01/15 05:38:44;;;;;;;9.93;1.30;;;;;;;-143.48;69.22;118439.88;5014613;28;20484;-69
2023/01/15 05:44:01;;;;;;;14.82;2.08;;;;;;;-143.48;69.78;118439.88;5014866;28;20092;-69
2023/01/15 05:46:26;;;;;;;8.18;1.48;;;;;;;-143.48;68.95;118439.88;5014583;28;20022;-70
2023/01/15 05:48:51;;;;;;;10.48;1.65;;;;;;;-143.48;67.13;118439.88;4996744;28;20030;-69
2023/01/15 05:51:17;;;;;;;12.82;1.80;;;;;;;-143.48;66.96;118439.88;5014249;28;20022;-69
2023/01/15 05:53:42;;;;;;;10.63;1.50;;;;;;;-143.48;65.23;118439.88;4996718;28;20033;-69
2023/01/15 05:56:08;;;;;;;7.75;1.83;;;;;;;-143.48;64.94;118439.88;5014368;28;20080;-69
2023/01/15 05:58:34;;;;;;;14.75;1.35;;;;;;;-143.48;61.98;118439.88;5014120;28;20033;-69
2023/01/15 06:00:59;;;;;;;9.43;1.70;;;;;;;-143.48;61.75;118439.88;5014056;28;20037;-69
2023/01/15 06:03:26;;;;;;;9.43;1.77;;;;;;;-143.48;62.76;118439.88;5014269;28;20465;-69
2023/01/15 06:05:52;;;;;;;8.15;1.50;;;;;;;-143.48;62.68;118439.88;4996447;28;20476;-69
2023/01/15 06:08:17;;;;;;;7.13;1.50;;;;;;;-143.48;62.99;118439.88;5014073;28;20057;-69
2023/01/15 06:10:46;;;;;;;8.38;1.33;;;;;;;-143.48;62.19;118439.88;5014224;28;20058;-69
2023/01/15 06:13:12;;;;;;;13.82;2.15;;;;;;;-143.48;63.79;118439.88;5013986;28;20025;-70
2023/01/15 06:15:37;;;;;;;15.70;1.67;;;;;;;-143.48;63.75;118439.88;5013868;28;20033;-69
2023/01/15 06:18:03;;;;;;;10.98;1.50;;;;;;;-143.48;62.27;118439.88;5014096;28;20021;-69
2023/01/15 06:20:28;;;;;;;14.73;1.90;;;;;;;-143.48;62.14;118439.88;5013835;28;20028;-69
2023/01/15 06:22:53;;;;;;;7.53;1.15;;;;;;;-143.48;61.94;118439.88;5013783;28;20033;-69
2023/01/15 06:25:19;;;;;;;13.90;1.83;;;;;;;-143.48;62.62;118439.88;5013843;28;20053;-68
2023/01/15 06:27:44;;;;;;;7.93;1.88;;;;;;;-143.48;63.56;118439.88;4996215;28;20026;-69
2023/01/15 06:30:11;;;;;;;14.95;1.75;;;;;;;-143.48;62.15;118439.88;4996358;28;20017;-69
2023/01/15 06:32:36;;;;;;;12.10;1.90;;;;;;;-143.48;61.26;118439.88;5017058;28;20026;-69
2023/01/15 06:35:02;;;;;;;7.93;1.50;;;;;;;-143.48;61.50;118439.88;4996219;28;20030;-68
2023/01/15 06:37:27;;;;;;;10.40;2.50;;;;;;;-143.48;61.77;118439.88;5013598;28;20033;-68
2023/01/15 06:39:53;;;;;;;10.05;1.58;;;;;;;-143.48;61.80;118439.88;5013548;28;20385;-69
2023/01/15 06:47:46;;;;;;;10.88;1.10;;;;;;;-143.48;61.32;118439.88;5013724;28;20096;-69
2023/01/15 06:50:12;;;;;;;7.47;1.60;;;;;;;-143.48;61.53;118439.88;5014601;28;20046;-69
2023/01/15 06:52:37;;;;;;;8.40;1.50;;;;;;;-143.48;60.32;118439.88;4996317;28;20052;-70
2023/01/15 06:55:03;;;;;;;11.60;1.95;;;;;;;-143.48;60.44;118439.88;5013639;28;20026;-70
2023/01/15 06:57:28;;;;;;;8.23;1.40;;;;;;;-143.48;59.74;118439.88;5013559;28;20025;-69
2023/01/15 06:59:54;;;;;;;13.02;1.63;;;;;;;-143.48;61.42;118439.88;4995804;28;20101;-70
2023/01/15 07:02:20;;;;;;;7.10;1.35;;;;;;;-143.48;61.34;118439.88;5014626;28;20025;-69
2023/01/15 07:04:46;;;;;;;7.10;1.33;;;;;;;-143.48;59.98;118439.88;5016165;28;20028;-69
2023/01/15 07:07:13;;;;;;;14.10;1.90;;;;;;;-143.48;60.58;118439.88;5014303;28;20372;-70
2023/01/15 07:09:38;;;;;;;12.00;2.83;;;;;;;-143.48;61.67;118439.88;5014899;28;20076;-70
2023/01/15 07:12:04;;;;;;;15.27;1.63;;;;;;;-143.48;61.31;118439.88;4997825;28;20026;-70
2023/01/15 07:14:30;;;;;;;10.25;1.48;;;;;;;-143.48;61.11;118439.88;5013558;28;20037;-69
2023/01/15 07:16:57;;;;;;;12.20;1.77;;;;;;;-143.48;61.37;118439.88;5016562;28;20473;-69
2023/01/15 07:19:23;;;;;;;9.82;1.45;;;;;;;-143.48;61.93;118439.88;5013772;28;20092;-69
2023/01/15 07:21:48;;;;;;;18.95;2.13;;;;;;;-143.48;61.89;118439.88;5014300;28;20370;-68
2023/01/15 07:24:14;;;;;;;12.75;1.60;;;;;;;-143.48;61.96;118439.88;4996001;28;20021;-69
2023/01/15 07:26:41;;;;;;;4.90;1.15;;;;;;;-143.48;61.83;118439.88;4995724;28;20574;-69
2023/01/15 07:29:06;;;;;;;11.82;1.63;;;;;;;-143.48;62.15;118439.88;5013673;28;20035;-69
2023/01/15 07:31:32;;;;;;;12.13;1.27;;;;;;;-143.48;62.33;118439.88;5013269;28;20037;-70
2023/01/15 07:33:57;;;;;;;12.32;1.50;;;;;;;-143.48;64.18;118439.88;5013406;28;20029;-70
2023/01/15 07:36:29;;;;;;;11.90;1.60;;;;;;;-143.48;63.32;118439.88;5013772;28;20030;-69
2023/01/15 07:38:54;;;;;;;13.75;1.83;;;;;;;-143.48;63.97;118439.88;4995861;28;20022;-69
2023/01/15 07:49:44;;;;;;;12.63;1.92;;;;;;;-143.48;62.16;118439.88;5013657;28;20176;-69
2023/01/15 07:52:10;;;;;;;13.13;1.73;;;;;;;-143.48;62.97;118439.88;4995930;28;20033;-69
2023/01/15 07:54:35;;;;;;;7.63;1.20;;;;;;;-143.48;61.47;118439.88;5012628;28;20113;-69
2023/01/15 07:57:01;;;;;;;10.57;1.80;;;;;;;-143.48;62.46;118439.88;5016059;28;20387;-69
2023/01/15 07:59:26;;;;;;;9.27;1.67;;;;;;;-143.48;62.69;118439.88;5016867;28;20028;-69
2023/01/15 08:01:52;;;;;;;11.38;2.10;;;;;;;-143.48;62.26;118439.88;5024252;28;20100;-70
2023/01/15 08:04:17;;;;;;;9.73;1.55;;;;;;;-143.48;62.08;118439.88;5017004;28;20036;-69
2023/01/15 08:06:42;;;;;;;7.82;1.42;;;;;;;-143.48;61.56;118439.88;5000048;28;20440;-69
2023/01/15 08:09:08;;;;;;;13.93;1.55;;;;;;;-143.48;62.54;118439.88;5016654;28;20080;-68
2023/01/15 08:17:02;;;;;;;12.18;1.60;;;;;;;-143.48;65.47;118439.88;5030159;28;20061;-70
2023/01/15 08:19:30;;;;;;;7.75;2.03;;;;;;;-143.48;66.96;118439.88;5030856;28;20029;-70
2023/01/15 08:21:56;;;;;;;13.98;1.90;;;;;;;-143.48;65.77;118439.88;4998983;28;20444;-69
2023/01/15 08:24:22;;;;;;;9.15;1.38;;;;;;;-143.48;63.75;118439.88;5016117;28;20049;-70
2023/01/15 08:26:47;;;;;;;13.23;1.60;;;;;;;-143.48;62.12;118439.88;5016182;28;20089;-70
2023/01/15 08:29:13;;;;;;;16.13;2.13;;;;;;;-143.48;63.16;118439.88;5016296;28;20072;-69
2023/01/15 08:31:40;;;;;;;6.38;1.48;;;;;;;-143.48;62.47;118439.88;4998691;28;20017;-69
2023/01/15 08:34:05;;;;;;;14.75;1.83;;;;;;;-143.48;63.11;118439.88;5016520;28;20030;-70
2023/01/15 08:36:31;;;;;;;14.55;2.25;;;;;;;-143.48;62.91;118439.88;5016036;28;20441;-71
2023/01/15 08:38:56;;;;;;;14.85;2.00;;;;;;;-143.48;62.13;118439.88;4998270;28;20037;-70
2023/01/15 08:41:21;;;;;;;14.35;2.67;;;;;;;-143.48;63.61;118439.88;5016399;28;20105;-70
2023/01/15 08:43:46;;;;;;;21.77;2.03;;;;;;;-143.48;64.29;118439.88;4998182;28;20338;-69
2023/01/15 08:46:12;;;;;;;15.95;1.80;;;;;;;-143.48;64.84;118439.88;5018285;28;20025;-70
2023/01/15 08:48:37;;;;;;;14.00;1.80;;;;;;;-143.48;64.86;118439.88;5016863;28;20109;-69
2023/01/15 08:51:07;;;;;;;10.88;1.55;;;;;;;-143.48;65.40;118439.88;5021104;28;20044;-69
2023/01/15 08:53:33;;;;;;;12.45;2.40;;;;;;;-143.48;66.43;118439.88;5015638;28;20576;-68
2023/01/15 08:55:58;;;;;;;8.95;1.63;;;;;;;-143.48;66.08;118439.88;4998467;28;20054;-69
2023/01/15 08:58:27;;;;;;;16.77;2.47;;;;;;;-143.48;65.56;118439.88;5016305;28;20018;-70
2023/01/15 09:00:53;;;;;;;13.40;1.73;;;;;;;-143.48;66.49;118439.88;5015345;28;20022;-69
2023/01/15 09:03:18;;;;;;;12.48;1.98;;;;;;;-143.48;64.81;118439.88;5015744;28;20429;-69
2023/01/15 09:05:43;;;;;;;11.85;1.77;;;;;;;-143.48;64.53;118439.88;4996064;28;20122;-70
2023/01/15 09:08:09;;;;;;;12.15;1.65;;;;;;;-143.48;64.44;118439.88;5015424;28;20021;-69
2023/01/15 09:10:34;;;;;;;13.20;2.40;;;;;;;-143.48;66.09;118439.88;5014299;28;20040;-69
2023/01/15 09:13:01;;;;;;;15.85;2.35;;;;;;;-143.48;64.43;118439.88;5014871;28;20057;-69
2023/01/15 09:15:27;;;;;;;11.43;1.70;;;;;;;-143.48;64.52;118439.88;5015094;28;20022;-69
2023/01/15 09:17:53;;;;;;;14.02;2.03;;;;;;;-143.48;65.15;118439.88;5015261;28;20064;-69
2023/01/15 09:20:18;;;;;;;8.95;1.50;;;;;;;-143.48;63.32;118439.88;5014875;28;20065;-70
2023/01/15 09:22:43;;;;;;;15.27;2.10;;;;;;;-143.48;63.25;118439.88;5015109;28;20544;-69
2023/01/15 09:25:09;;;;;;;6.95;1.35;;;;;;;-143.48;63.62;118439.88;5015106;28;20052;-69
2023/01/15 09:27:36;;;;;;;16.50;1.75;;;;;;;-143.48;63.64;118439.88;5015124;28;20401;-70
2023/01/15 09:30:03;;;;;;;11.75;1.73;;;;;;;-143.48;64.74;118439.88;5015273;28;20097;-69
2023/01/15 09:32:28;;;;;;;14.93;2.05;;;;;;;-143.48;63.68;118439.88;5015332;28;20032;-69
2023/01/15 09:34:53;;;;;;;14.38;1.90;;;;;;;-143.48;63.78;118439.88;4996986;28;20025;-69
2023/01/15 09:37:19;;;;;;;10.68;1.67;;;;;;;-143.48;63.29;118439.88;5014688;28;20030;-69
2023/01/15 09:39:44;;;;;;;10.35;1.55;;;;;;;-143.48;64.25;118439.88;4996935;28;20456;-69
2023/01/15 09:42:42;;;;;;;11.13;1.70;;;;;;;-143.48;62.54;118439.88;5014390;28;20030;-69
2023/01/15 09:45:30;;;;;;;12.88;1.55;;;;;;;-143.48;63.05;118439.88;5014321;28;20029;-70
2023/01/15 09:48:10;;;;;;;10.30;1.70;;;;;;;-143.48;62.25;118439.88;4997025;28;20022;-70
2023/01/15 09:51:05;;;;;;;12.75;1.67;;;;;;;-143.48;62.90;118439.88;5014486;28;20028;-70
2023/01/15 09:54:01;;;;;;;14.15;1.60;;;;;;;-143.48;62.76;118439.88;5012416;28;20034;-67
2023/01/15 09:56:29;;;;;;;10.15;1.50;;;;;;;-143.48;63.93;118439.88;4989102;28;20037;-68
2023/01/15 09:58:56;;;;;;;13.52;2.58;;;;;;;-143.48;63.41;118439.88;5012145;28;20030;-68
2023/01/15 10:01:31;;;;;;;12.63;1.83;;;;;;;-143.48;62.66;118439.88;5011955;28;20032;-68
2023/01/15 10:04:03;;;;;;;10.43;1.67;;;;;;;-143.48;62.95;118439.88;5012069;28;20104;-68
2023/01/15 10:06:33;;;;;;;12.35;2.13;;;;;;;-143.48;65.56;118439.88;4994446;28;20018;-70
2023/01/15 10:09:05;;;;;;;10.00;1.52;;;;;;;-143.48;69.41;118439.88;5012936;28;20030;-69
2023/01/15 10:14:37;;;;;;;12.85;2.58;;;;;;;-143.48;72.73;118439.88;5014254;28;20557;-69
2023/01/15 10:17:06;;;;;;;7.72;1.25;;;;;;;-143.48;73.27;118439.88;5013422;28;20032;-69
2023/01/15 10:19:31;;;;;;;11.60;1.90;;;;;;;-143.48;75.45;118439.88;5013374;28;20086;-70
2023/01/15 10:22:30;;;;;;;9.95;1.45;;;;;;;-143.48;74.35;118439.88;5013810;28;20400;-70
2023/01/15 10:24:57;;;;;;;15.07;1.70;;;;;;;-143.48;71.79;118439.88;4982594;28;20045;-69
2023/01/15 10:27:26;;;;;;;7.43;1.40;;;;;;;-143.48;64.57;118439.88;5013444;28;20050;-69
2023/01/15 10:30:05;;;;;;;8.45;1.60;;;;;;;-143.48;58.88;118439.88;5013520;28;20420;-69
2023/01/15 10:32:48;;;;;;;15.73;2.22;;;;;;;-143.48;61.28;118439.88;5013608;28;20026;-70
2023/01/15 10:35:50;;;;;;;13.90;1.85;;;;;;;-143.48;54.04;118439.88;5013730;28;20072;-70
2023/01/15 10:38:29;;;;;;;13.68;2.35;;;;;;;-143.48;60.17;118439.88;5013494;28;20026;-69
2023/01/15 10:41:02;;;;;;;9.40;1.90;;;;;;;-143.48;65.10;118439.88;5013469;28;20077;-69
2023/01/15 10:43:46;;;;;;;8.27;1.90;;;;;;;-143.48;65.80;118439.88;5013476;28;20030;-69
2023/01/15 10:46:15;;;;;;;14.02;1.75;;;;;;;-143.48;67.81;118439.88;5013480;28;20026;-69
2023/01/15 10:48:49;;;;;;;13.02;2.15;;;;;;;-143.48;68.17;118439.88;5013634;28;20460;-69
2023/01/15 10:51:20;;;;;;;8.90;1.80;;;;;;;-143.48;67.55;118439.88;5013469;28;20022;-69
2023/01/15 10:53:58;;;;;;;11.40;1.83;;;;;;;-143.48;67.38;118439.88;5013344;28;20542;-69
2023/01/15 10:56:36;;;;;;;18.45;2.45;;;;;;;-143.48;68.55;118439.88;5013563;28;20101;-69
2023/01/15 10:59:14;;;;;;;13.95;2.03;;;;;;;-143.48;68.84;118439.88;4995758;28;20022;-68
2023/01/15 11:01:39;;;;;;;15.20;1.95;;;;;;;-143.48;69.01;118439.88;5013367;28;20474;-69
2023/01/15 11:04:06;;;;;;;18.10;2.03;;;;;;;-143.48;67.39;118439.88;5013296;28;20076;-68
2023/01/15 11:06:32;;;;;;;10.98;2.00;;;;;;;-143.48;67.23;118439.88;5013143;28;20099;-69
2023/01/15 11:08:58;;;;;;;13.70;1.92;;;;;;;-143.48;68.52;118439.88;5013245;28;20030;-68
2023/01/15 11:20:25;;;;;;;8.43;1.90;;;;;;;-143.48;71.29;118439.88;5013255;28;20141;-68
2023/01/15 11:22:51;;;;;;;8.13;1.70;;;;;;;-143.48;70.64;118439.88;5013032;28;20137;-69
2023/01/15 11:25:28;;;;;;;8.50;1.60;;;;;;;-143.48;69.41;118439.88;5013032;28;20061;-69
2023/01/15 11:27:54;;;;;;;10.25;1.80;;;;;;;-143.48;67.79;118439.88;4995387;28;20050;-68
2023/01/15 11:30:27;;;;;;;12.05;1.77;;;;;;;-143.48;67.49;118439.88;4998299;28;20384;-69
2023/01/15 11:32:56;;;;;;;12.52;1.90;;;;;;;-143.48;67.88;118439.88;5016981;28;20033;-69
2023/01/15 11:35:21;;;;;;;12.60;2.30;;;;;;;-143.48;66.25;118439.88;4999130;28;20025;-69
2023/01/15 11:37:46;;;;;;;8.98;1.48;;;;;;;-143.48;66.12;118439.88;5016739;28;20084;-68
2023/01/15 11:40:17;;;;;;;18.15;2.25;;;;;;;-143.48;65.85;118439.88;5016669;28;20103;-68
2023/01/15 11:51:10;;;;;;;17.08;1.98;;;;;;;-143.48;68.43;118439.88;5016779;28;20037;-69
2023/01/15 11:53:41;;;;;;;9.70;1.95;;;;;;;-143.48;68.36;118439.88;5016436;28;20034;-69
2023/01/15 11:56:12;;;;;;;10.43;2.42;;;;;;;-143.48;69.74;118439.88;5016378;28;20028;-69
2023/01/15 11:58:43;;;;;;;16.58;2.17;;;;;;;-143.48;70.39;118439.88;4998785;28;20477;-69
2023/01/15 12:01:12;;;;;;;12.63;1.80;;;;;;;-143.48;69.61;118439.88;5016283;28;20029;-69
2023/01/15 12:03:39;;;;;;;13.07;2.17;;;;;;;-143.48;70.35;118439.88;5016378;28;20029;-69